createdAt,value
2019-02-20T00:01:46.109Z,99.90
2019-02-20T00:03:52.237Z,99.90
2019-02-20T00:05:59.109Z,99.90
2019-02-20T00:08:04.580Z,99.90
2019-02-20T00:10:10.277Z,99.90
2019-02-20T00:12:15.776Z,99.90
2019-02-20T00:14:21.284Z,99.90
2019-02-20T00:16:26.742Z,99.90
2019-02-20T00:18:38.849Z,99.90
2019-02-20T00:20:44.282Z,99.90
2019-02-20T00:22:49.698Z,99.90
2019-02-20T00:24:56.234Z,99.90
2019-02-20T00:27:01.786Z,99.90
2019-02-20T00:29:07.270Z,99.90
2019-02-20T00:31:14.619Z,99.90
2019-02-20T00:33:20.198Z,99.90
2019-02-20T00:35:25.862Z,99.90
2019-02-20T00:37:31.305Z,99.90
2019-02-20T00:39:37.518Z,99.90
2019-02-20T00:41:45.394Z,99.90
2019-02-20T00:44:09.046Z,99.90
2019-02-20T00:46:23.009Z,99.90
2019-02-20T00:49:02.758Z,99.90
2019-02-20T00:51:30.115Z,99.90
2019-02-20T00:53:40.945Z,99.90
2019-02-20T00:55:46.337Z,99.90
2019-02-20T00:57:52.061Z,99.90
2019-02-20T00:59:59.854Z,99.90
2019-02-20T01:02:05.382Z,99.90
2019-02-20T01:04:10.913Z,99.90
2019-02-20T01:06:16.336Z,99.90
2019-02-20T01:08:21.783Z,99.90
2019-02-20T01:10:27.787Z,99.90
2019-02-20T01:12:34.162Z,99.90
2019-02-20T01:14:39.655Z,99.90
2019-02-20T01:16:45.078Z,99.90
2019-02-20T01:18:51.569Z,99.90
2019-02-20T01:20:57.023Z,99.90
2019-02-20T01:23:02.501Z,99.90
2019-02-20T01:25:08.849Z,99.90
2019-02-20T01:27:15.173Z,99.90
2019-02-20T01:29:20.772Z,99.90
2019-02-20T01:31:26.165Z,99.90
2019-02-20T01:33:31.761Z,99.90
2019-02-20T01:35:37.142Z,99.90
2019-02-20T01:37:48.549Z,99.90
2019-02-20T01:39:54.613Z,99.90
2019-02-20T01:42:00.669Z,99.90
2019-02-20T01:44:08.673Z,99.90
2019-02-20T01:46:14.107Z,99.90
2019-02-20T01:48:19.506Z,99.90
2019-02-20T01:50:30.823Z,99.90
2019-02-20T01:52:37.053Z,99.90
2019-02-20T01:54:42.605Z,99.90
2019-02-20T01:56:48.555Z,99.90
2019-02-20T01:58:53.942Z,99.90
2019-02-20T02:00:59.745Z,99.90
2019-02-20T02:03:07.445Z,99.90
2019-02-20T02:05:15.712Z,99.90
2019-02-20T02:07:21.634Z,99.90
2019-02-20T02:09:32.916Z,99.90
2019-02-20T02:11:38.642Z,99.90
2019-02-20T02:13:44.087Z,99.90
2019-02-20T02:15:49.535Z,99.90
2019-02-20T02:17:55.015Z,99.90
2019-02-20T02:20:00.438Z,99.90
2019-02-20T02:22:09.422Z,99.90
2019-02-20T02:24:19.081Z,99.90
2019-02-20T02:26:25.157Z,99.90
2019-02-20T02:28:30.545Z,99.90
2019-02-20T02:30:36.402Z,99.90
2019-02-20T02:32:41.846Z,99.90
2019-02-20T02:34:51.088Z,99.90
2019-02-20T02:36:56.733Z,99.90
2019-02-20T02:39:02.185Z,99.90
2019-02-20T02:41:14.181Z,99.90
2019-02-20T02:43:19.984Z,99.90
2019-02-20T02:45:26.687Z,99.90
2019-02-20T02:47:33.186Z,99.90
2019-02-20T02:49:38.849Z,99.90
2019-02-20T02:51:44.819Z,99.90
2019-02-20T02:53:50.285Z,99.90
2019-02-20T02:55:55.690Z,99.90
2019-02-20T02:58:01.354Z,99.90
2019-02-20T03:00:21.038Z,99.90
2019-02-20T03:02:26.563Z,99.90
2019-02-20T03:04:31.994Z,99.90
2019-02-20T03:06:37.599Z,99.90
2019-02-20T03:08:43.185Z,99.90
2019-02-20T03:10:48.581Z,99.90
2019-02-20T03:12:57.322Z,99.90
2019-02-20T03:15:03.018Z,99.90
2019-02-20T03:17:09.371Z,99.90
2019-02-20T03:19:14.784Z,99.90
2019-02-20T03:21:20.645Z,99.90
2019-02-20T03:23:26.045Z,99.90
2019-02-20T03:25:33.947Z,99.90
2019-02-20T03:27:39.346Z,99.90
2019-02-20T03:29:45.004Z,99.90
2019-02-20T03:31:50.693Z,99.90
2019-02-20T03:33:56.276Z,99.90
2019-02-20T03:36:01.675Z,99.90
2019-02-20T03:38:07.086Z,99.90
2019-02-20T03:40:13.510Z,99.90
2019-02-20T03:42:19.032Z,99.90
2019-02-20T03:44:27.858Z,99.90
2019-02-20T03:46:33.383Z,99.90
2019-02-20T03:48:39.012Z,99.90
2019-02-20T03:50:45.525Z,99.90
2019-02-20T03:52:51.331Z,99.90
2019-02-20T03:54:56.809Z,99.90
2019-02-20T03:57:02.681Z,99.90
2019-02-20T03:59:08.133Z,99.90
2019-02-20T04:01:13.545Z,99.90
2019-02-20T04:03:19.016Z,99.90
2019-02-20T04:05:24.414Z,99.90
2019-02-20T04:07:29.930Z,99.90
2019-02-20T04:09:35.432Z,99.90
2019-02-20T04:11:40.832Z,99.90
2019-02-20T04:13:46.317Z,99.90
2019-02-20T04:15:51.806Z,99.90
2019-02-20T04:17:57.527Z,99.90
2019-02-20T04:20:03.026Z,99.90
2019-02-20T04:22:09.626Z,99.90
2019-02-20T04:24:15.183Z,99.90
2019-02-20T04:26:20.590Z,99.90
2019-02-20T04:28:31.962Z,99.90
2019-02-20T04:30:37.431Z,99.90
2019-02-20T04:32:43.147Z,99.90
2019-02-20T04:34:48.910Z,99.90
2019-02-20T04:36:54.460Z,99.90
2019-02-20T04:38:59.906Z,99.90
2019-02-20T04:41:05.575Z,99.90
2019-02-20T04:43:11.487Z,99.90
2019-02-20T04:45:17.029Z,99.90
2019-02-20T04:47:22.561Z,99.90
2019-02-20T04:49:28.017Z,99.90
2019-02-20T04:51:33.874Z,99.90
2019-02-20T04:53:39.467Z,99.90
2019-02-20T04:55:45.616Z,99.90
2019-02-20T04:58:25.813Z,99.90
2019-02-20T05:00:33.341Z,99.90
2019-02-20T05:02:39.221Z,99.90
2019-02-20T05:04:44.612Z,99.90
2019-02-20T05:06:55.957Z,99.90
2019-02-20T05:09:01.398Z,99.90
2019-02-20T05:11:07.601Z,99.90
2019-02-20T05:13:14.195Z,99.90
2019-02-20T05:15:19.923Z,99.90
2019-02-20T05:17:25.418Z,99.90
2019-02-20T05:19:31.778Z,99.90
2019-02-20T05:21:37.302Z,99.90
2019-02-20T05:23:43.038Z,99.90
2019-02-20T05:25:51.616Z,99.90
2019-02-20T05:27:57.378Z,99.90
2019-02-20T05:30:03.651Z,99.90
2019-02-20T05:32:09.074Z,99.90
2019-02-20T05:34:14.624Z,99.90
2019-02-20T05:36:20.102Z,99.90
2019-02-20T05:38:27.625Z,99.90
2019-02-20T05:40:33.030Z,99.90
2019-02-20T05:42:38.975Z,99.90
2019-02-20T05:44:44.379Z,99.90
2019-02-20T05:46:49.956Z,99.90
2019-02-20T05:48:56.190Z,99.90
2019-02-20T05:51:07.893Z,99.90
2019-02-20T05:53:13.288Z,99.90
2019-02-20T05:55:20.079Z,99.90
2019-02-20T05:57:25.622Z,99.90
2019-02-20T05:59:31.507Z,99.90
2019-02-20T06:01:36.933Z,99.90
2019-02-20T06:03:44.298Z,99.90
2019-02-20T06:05:49.722Z,99.90
2019-02-20T06:07:55.207Z,99.90
2019-02-20T06:10:01.703Z,99.90
2019-02-20T06:12:07.728Z,99.90
2019-02-20T06:14:13.585Z,99.90
2019-02-20T06:16:23.311Z,99.90
2019-02-20T06:18:28.985Z,99.90
2019-02-20T06:20:34.952Z,99.90
2019-02-20T06:22:40.445Z,99.90
2019-02-20T06:24:45.957Z,99.90
2019-02-20T06:26:51.751Z,99.90
2019-02-20T06:29:03.430Z,99.90
2019-02-20T06:31:10.725Z,99.90
2019-02-20T06:33:16.126Z,99.90
2019-02-20T06:35:21.581Z,99.90
2019-02-20T06:37:27.029Z,99.90
2019-02-20T06:39:32.443Z,99.90
2019-02-20T06:41:43.806Z,99.90
2019-02-20T06:43:50.089Z,99.90
2019-02-20T06:45:55.698Z,99.90
2019-02-20T06:48:01.152Z,99.90
2019-02-20T06:50:06.877Z,99.90
2019-02-20T06:52:12.273Z,99.90
2019-02-20T06:54:20.562Z,99.90
2019-02-20T06:56:26.057Z,99.90
2019-02-20T06:58:31.851Z,99.90
2019-02-20T07:00:37.274Z,99.90
2019-02-20T07:02:43.408Z,99.90
2019-02-20T07:05:25.073Z,99.90
2019-02-20T07:08:09.349Z,99.90
2019-02-20T07:10:58.942Z,99.90
2019-02-20T07:13:30.538Z,99.90
2019-02-20T07:16:11.397Z,99.90
2019-02-20T07:19:02.145Z,99.90
2019-02-20T07:21:45.826Z,99.90
2019-02-20T07:24:25.278Z,99.90
2019-02-20T07:27:20.077Z,99.90
2019-02-20T07:30:04.272Z,99.90
2019-02-20T07:32:09.822Z,99.90
2019-02-20T07:34:15.220Z,99.90
2019-02-20T07:36:20.698Z,99.90
2019-02-20T07:38:26.637Z,99.90
2019-02-20T07:40:32.129Z,99.90
2019-02-20T07:42:38.218Z,99.90
2019-02-20T07:44:44.513Z,99.90
2019-02-20T07:46:50.714Z,99.90
2019-02-20T07:48:57.674Z,99.90
2019-02-20T07:51:03.113Z,99.90
2019-02-20T07:53:14.441Z,97.90
2019-02-20T07:55:19.869Z,99.90
2019-02-20T07:57:25.321Z,99.90
2019-02-20T07:59:31.861Z,99.90
2019-02-20T08:01:37.302Z,99.90
2019-02-20T08:03:46.677Z,99.90
2019-02-20T08:05:52.097Z,99.90
2019-02-20T08:07:57.713Z,99.90
2019-02-20T08:10:03.742Z,99.90
2019-02-20T08:12:09.145Z,99.90
2019-02-20T08:14:14.575Z,99.90
2019-02-20T08:16:20.197Z,99.90
2019-02-20T08:18:25.769Z,99.90
2019-02-20T08:20:31.377Z,99.90
2019-02-20T08:22:37.031Z,99.90
2019-02-20T08:24:42.461Z,99.90
2019-02-20T08:26:48.242Z,99.90
2019-02-20T08:28:53.637Z,99.90
2019-02-20T08:30:59.073Z,99.90
2019-02-20T08:33:04.750Z,99.90
2019-02-20T08:35:10.445Z,96.70
2019-02-20T08:37:16.590Z,99.90
2019-02-20T08:39:22.006Z,99.90
2019-02-20T08:41:27.827Z,99.90
2019-02-20T08:43:34.153Z,99.90
2019-02-20T08:45:39.786Z,99.90
2019-02-20T08:47:45.305Z,92.40
2019-02-20T08:49:50.749Z,82.90
2019-02-20T08:51:56.297Z,91.80
2019-02-20T08:54:01.710Z,98.60
2019-02-20T08:56:07.134Z,99.90
2019-02-20T08:58:13.102Z,99.90
2019-02-20T09:00:21.013Z,83.70
2019-02-20T09:02:26.825Z,59.80
2019-02-20T09:04:32.232Z,52.30
2019-02-20T09:06:37.771Z,54.20
2019-02-20T09:08:43.219Z,54.30
2019-02-20T09:10:49.591Z,57.70
2019-02-20T09:12:55.089Z,65.30
2019-02-20T09:15:07.305Z,64.30
2019-02-20T09:17:13.089Z,65.20
2019-02-20T09:19:18.660Z,59.50
2019-02-20T09:21:24.070Z,59.80
2019-02-20T09:23:31.201Z,62.40
2019-02-20T09:25:41.527Z,67.80
2019-02-20T09:27:45.677Z,59.30
2019-02-20T09:29:51.094Z,58.70
2019-02-20T09:31:56.578Z,58.90
2019-02-20T09:34:02.002Z,59.60
2019-02-20T09:36:07.414Z,63.00
2019-02-20T09:38:13.033Z,73.30
2019-02-20T09:40:20.742Z,58.90
2019-02-20T09:42:26.155Z,54.90
2019-02-20T09:44:34.553Z,61.30
2019-02-20T09:46:39.989Z,53.40
2019-02-20T09:48:46.054Z,52.20
2019-02-20T09:50:51.803Z,51.30
2019-02-20T09:53:00.445Z,50.10
2019-02-20T09:55:06.295Z,51.30
2019-02-20T09:57:11.862Z,49.40
2019-02-20T09:59:17.286Z,47.50
2019-02-20T10:01:22.793Z,46.20
2019-02-20T10:03:28.430Z,43.40
2019-02-20T10:05:33.943Z,44.50
2019-02-20T10:07:39.375Z,44.60
2019-02-20T10:09:44.829Z,43.30
2019-02-20T10:11:54.357Z,45.20
2019-02-20T10:14:01.079Z,44.90
2019-02-20T10:16:06.549Z,46.10
2019-02-20T10:18:12.348Z,47.50
2019-02-20T10:20:17.877Z,45.90
2019-02-20T10:22:23.356Z,47.00
2019-02-20T10:24:29.150Z,47.00
2019-02-20T10:26:35.154Z,49.80
2019-02-20T10:28:41.035Z,48.50
2019-02-20T10:30:46.483Z,46.70
2019-02-20T10:32:51.918Z,46.70
2019-02-20T10:34:57.350Z,47.60
2019-02-20T10:37:04.910Z,49.10
2019-02-20T10:39:10.398Z,48.40
2019-02-20T10:41:15.814Z,49.00
2019-02-20T10:43:21.254Z,48.20
2019-02-20T10:45:26.748Z,48.80
2019-02-20T10:47:32.317Z,48.10
2019-02-20T10:49:37.863Z,50.30
2019-02-20T10:51:43.370Z,49.50
2019-02-20T10:53:48.859Z,49.70
2019-02-20T10:55:54.257Z,50.60
2019-02-20T10:58:00.323Z,51.50
2019-02-20T11:00:08.622Z,48.90
2019-02-20T11:02:19.744Z,49.10
2019-02-20T11:04:25.250Z,46.40
2019-02-20T11:06:30.941Z,44.90
2019-02-20T11:08:38.213Z,46.00
2019-02-20T11:10:43.793Z,44.90
2019-02-20T11:12:50.188Z,46.00
2019-02-20T11:14:57.570Z,47.10
2019-02-20T11:17:03.337Z,46.70
2019-02-20T11:19:08.825Z,47.60
2019-02-20T11:21:14.266Z,45.40
2019-02-20T11:23:19.825Z,42.20
2019-02-20T11:25:24.948Z,41.00
2019-02-20T11:27:36.404Z,39.20
2019-02-20T11:29:41.521Z,39.00
2019-02-20T11:31:46.898Z,37.60
2019-02-20T11:33:53.977Z,39.60
2019-02-20T11:36:00.198Z,39.30
2019-02-20T11:38:05.373Z,39.20
2019-02-20T11:40:14.313Z,39.50
2019-02-20T11:42:21.029Z,39.90
2019-02-20T11:44:26.510Z,37.90
2019-02-20T11:46:37.649Z,36.70
2019-02-20T11:48:42.781Z,37.20
2019-02-20T11:50:48.129Z,37.40
2019-02-20T11:53:05.896Z,36.00
2019-02-20T11:55:11.458Z,36.30
2019-02-20T11:57:17.426Z,37.00
2019-02-20T11:59:22.582Z,35.70
2019-02-20T12:01:28.214Z,36.60
2019-02-20T12:03:33.341Z,34.70
2019-02-20T12:05:38.449Z,36.50
2019-02-20T12:07:43.765Z,34.50
2019-02-20T12:09:48.967Z,33.90
2019-02-20T12:11:55.574Z,33.40
2019-02-20T12:14:00.751Z,36.10
2019-02-20T12:16:05.927Z,37.30
2019-02-20T12:18:17.445Z,36.40
2019-02-20T12:20:19.382Z,35.70
2019-02-20T12:22:24.518Z,37.50
2019-02-20T12:24:29.682Z,36.30
2019-02-20T12:26:35.278Z,36.20
2019-02-20T12:28:40.629Z,35.50
2019-02-20T12:30:48.195Z,36.70
2019-02-20T12:32:53.337Z,36.70
2019-02-20T12:34:58.962Z,38.30
2019-02-20T12:37:05.513Z,36.80
2019-02-20T12:39:10.919Z,38.20
2019-02-20T12:41:16.078Z,39.10
2019-02-20T12:43:21.297Z,38.90
2019-02-20T12:45:26.433Z,37.40
2019-02-20T12:47:31.564Z,37.40
2019-02-20T12:49:36.716Z,38.60
2019-02-20T12:51:41.846Z,38.90
2019-02-20T12:53:46.959Z,37.60
2019-02-20T12:55:54.501Z,39.50
2019-02-20T12:57:59.894Z,39.60
2019-02-20T13:00:05.597Z,39.00
2019-02-20T13:02:11.098Z,39.90
2019-02-20T13:04:16.232Z,39.50
2019-02-20T13:06:21.376Z,38.90
2019-02-20T13:08:26.508Z,38.40
2019-02-20T13:10:31.716Z,37.50
2019-02-20T13:12:36.870Z,38.70
2019-02-20T13:14:42.035Z,37.20
2019-02-20T13:16:47.396Z,37.20
2019-02-20T13:18:52.585Z,37.60
2019-02-20T13:20:59.324Z,38.60
2019-02-20T13:23:04.472Z,39.80
2019-02-20T13:25:09.672Z,41.10
2019-02-20T13:27:22.476Z,41.40
2019-02-20T13:29:21.792Z,41.10
2019-02-20T13:31:26.954Z,40.30
2019-02-20T13:33:34.990Z,39.60
2019-02-20T13:35:40.373Z,40.80
2019-02-20T13:37:45.513Z,41.30
2019-02-20T13:39:52.145Z,40.10
2019-02-20T13:41:57.545Z,41.20
2019-02-20T13:44:02.781Z,41.10
2019-02-20T13:46:08.135Z,39.90
2019-02-20T13:48:13.510Z,40.30
2019-02-20T13:50:20.430Z,39.80
2019-02-20T13:52:25.630Z,39.30
2019-02-20T13:54:31.274Z,39.90
2019-02-20T13:56:36.515Z,40.90
2019-02-20T13:58:41.716Z,41.50
2019-02-20T14:00:47.299Z,40.70
2019-02-20T14:02:52.495Z,41.20
2019-02-20T14:05:00.534Z,41.10
2019-02-20T14:07:06.033Z,41.90
2019-02-20T14:09:11.525Z,42.40
2019-02-20T14:11:16.774Z,42.30
2019-02-20T14:13:22.278Z,42.40
2019-02-20T14:15:28.080Z,43.00
2019-02-20T14:17:34.313Z,43.10
2019-02-20T14:19:40.321Z,43.30
2019-02-20T14:21:45.814Z,43.70
2019-02-20T14:23:51.346Z,42.50
2019-02-20T14:25:57.569Z,44.00
2019-02-20T14:28:03.601Z,43.30
2019-02-20T14:30:10.258Z,43.90
2019-02-20T14:32:15.757Z,43.30
2019-02-20T14:34:21.359Z,44.90
2019-02-20T14:36:27.114Z,44.10
2019-02-20T14:38:35.787Z,44.30
2019-02-20T14:40:41.554Z,44.20
2019-02-20T14:42:47.277Z,44.60
2019-02-20T14:44:54.433Z,44.90
2019-02-20T14:47:00.255Z,45.00
2019-02-20T14:49:05.791Z,44.70
2019-02-20T14:51:11.365Z,46.10
2019-02-20T14:53:16.882Z,45.70
2019-02-20T14:55:22.380Z,45.20
2019-02-20T14:57:27.881Z,45.60
2019-02-20T14:59:33.461Z,46.20
2019-02-20T15:01:38.966Z,46.90
2019-02-20T15:03:44.773Z,47.70
2019-02-20T15:05:50.209Z,48.80
2019-02-20T15:07:55.705Z,49.10
2019-02-20T15:10:01.882Z,49.50
2019-02-20T15:12:07.599Z,49.50
2019-02-20T15:14:13.090Z,50.50
2019-02-20T15:16:20.522Z,51.20
2019-02-20T15:18:26.082Z,52.20
2019-02-20T15:20:32.338Z,51.00
2019-02-20T15:22:37.816Z,52.50
2019-02-20T15:24:43.686Z,58.00
2019-02-20T15:26:50.310Z,69.30
2019-02-20T15:28:55.783Z,78.90
2019-02-20T15:31:02.245Z,90.70
2019-02-20T15:33:08.168Z,85.10
2019-02-20T15:35:13.902Z,97.10
2019-02-20T15:37:19.429Z,97.70
2019-02-20T15:39:25.728Z,98.80
2019-02-20T15:41:31.687Z,98.90
2019-02-20T15:43:37.560Z,99.90
2019-02-20T15:45:43.049Z,99.90
2019-02-20T15:47:48.549Z,99.90
2019-02-20T15:49:54.325Z,99.90
2019-02-20T15:52:00.115Z,99.90
2019-02-20T15:54:06.629Z,99.90
2019-02-20T15:56:12.069Z,99.90
2019-02-20T15:58:17.642Z,99.90
2019-02-20T16:00:25.460Z,99.90
2019-02-20T16:02:31.266Z,99.90
2019-02-20T16:04:36.789Z,99.90
2019-02-20T16:06:44.374Z,99.90
2019-02-20T16:08:50.208Z,99.90
2019-02-20T16:10:56.028Z,99.90
2019-02-20T16:13:01.521Z,99.90
2019-02-20T16:15:07.698Z,99.90
2019-02-20T16:17:13.557Z,99.90
2019-02-20T16:19:19.941Z,99.90
2019-02-20T16:21:25.669Z,99.90
2019-02-20T16:23:31.146Z,99.90
2019-02-20T16:25:39.489Z,99.90
2019-02-20T16:27:47.412Z,99.90
2019-02-20T16:29:52.226Z,99.90
2019-02-20T16:31:57.697Z,99.90
2019-02-20T16:34:03.193Z,99.90
2019-02-20T16:36:08.641Z,99.90
2019-02-20T16:38:14.409Z,99.90
2019-02-20T16:40:21.176Z,99.90
2019-02-20T16:42:27.566Z,99.90
2019-02-20T16:44:33.057Z,99.90
2019-02-20T16:46:38.470Z,99.90
2019-02-20T16:48:43.994Z,99.90
2019-02-20T16:50:50.001Z,99.90
2019-02-20T16:52:55.988Z,99.90
2019-02-20T16:55:04.410Z,99.90
2019-02-20T16:57:09.911Z,99.90
2019-02-20T16:59:17.014Z,99.90
2019-02-20T17:01:22.817Z,99.90
2019-02-20T17:03:28.573Z,99.90
2019-02-20T17:05:35.241Z,99.90
2019-02-20T17:07:40.845Z,99.90
2019-02-20T17:09:48.289Z,99.90
2019-02-20T17:11:54.121Z,99.90
2019-02-20T17:14:00.011Z,99.90
2019-02-20T17:16:05.581Z,99.90
2019-02-20T17:18:12.321Z,99.90
2019-02-20T17:20:18.334Z,99.90
2019-02-20T17:22:27.004Z,99.90
2019-02-20T17:24:33.415Z,99.90
2019-02-20T17:26:39.198Z,99.90
2019-02-20T17:28:46.814Z,99.90
2019-02-20T17:30:52.318Z,99.90
2019-02-20T17:32:57.810Z,99.90
2019-02-20T17:35:03.421Z,99.90
2019-02-20T17:37:08.989Z,99.90
2019-02-20T17:39:14.553Z,99.90
2019-02-20T17:41:20.845Z,99.90
2019-02-20T17:43:26.313Z,99.90
2019-02-20T17:45:31.850Z,99.90
2019-02-20T17:47:37.943Z,99.90
2019-02-20T17:49:44.137Z,99.90
2019-02-20T17:51:49.703Z,99.90
2019-02-20T17:53:55.395Z,99.90
2019-02-20T17:56:00.965Z,99.90
2019-02-20T17:58:14.591Z,99.90
2019-02-20T18:00:15.569Z,99.90
2019-02-20T18:02:21.013Z,99.90
2019-02-20T18:04:26.414Z,99.90
2019-02-20T18:06:31.845Z,99.90
2019-02-20T18:08:37.338Z,99.90
2019-02-20T18:10:43.371Z,99.90
2019-02-20T18:12:50.206Z,99.90
2019-02-20T18:14:55.652Z,99.90
2019-02-20T18:17:01.578Z,99.90
2019-02-20T18:19:07.850Z,99.90
2019-02-20T18:21:15.176Z,99.90
2019-02-20T18:23:20.677Z,99.90
2019-02-20T18:25:26.158Z,99.90
2019-02-20T18:27:32.407Z,99.90
2019-02-20T18:29:38.740Z,99.90
2019-02-20T18:31:50.320Z,99.90
2019-02-20T18:33:55.950Z,99.90
2019-02-20T18:36:02.464Z,99.90
2019-02-20T18:38:07.887Z,99.90
2019-02-20T18:40:14.710Z,99.90
2019-02-20T18:42:20.845Z,99.90
2019-02-20T18:44:26.371Z,99.90
2019-02-20T18:46:34.981Z,99.90
2019-02-20T18:48:40.571Z,99.90
2019-02-20T18:50:52.110Z,99.90
2019-02-20T18:52:59.235Z,99.90
2019-02-20T18:55:24.667Z,99.90
2019-02-20T18:57:36.723Z,99.90
2019-02-20T18:59:42.197Z,99.90
2019-02-20T19:01:48.354Z,99.90
2019-02-20T19:03:54.020Z,99.90
2019-02-20T19:05:59.786Z,99.90
2019-02-20T19:08:32.422Z,99.90
2019-02-20T19:10:38.052Z,99.90
2019-02-20T19:13:22.223Z,99.90
2019-02-20T19:15:55.603Z,99.90
2019-02-20T19:18:40.435Z,99.90
2019-02-20T19:21:26.557Z,99.90
2019-02-20T19:24:05.587Z,99.90
2019-02-20T19:26:29.268Z,99.90
2019-02-20T19:29:23.818Z,99.90
2019-02-20T19:32:16.410Z,99.90
2019-02-20T19:35:05.635Z,99.90
2019-02-20T19:37:47.805Z,99.90
2019-02-20T19:40:43.330Z,99.90
2019-02-20T19:43:37.237Z,99.90
2019-02-20T19:46:07.715Z,99.90
2019-02-20T19:48:29.272Z,99.90
2019-02-20T19:51:21.854Z,99.90
2019-02-20T19:53:40.080Z,99.90
2019-02-20T19:56:15.290Z,99.90
2019-02-20T19:59:23.244Z,99.90
2019-02-20T20:02:12.864Z,99.90
2019-02-20T20:05:10.425Z,99.90
2019-02-20T20:08:11.975Z,99.90
2019-02-20T20:11:01.358Z,99.90
2019-02-20T20:13:28.594Z,99.90
2019-02-20T20:16:17.576Z,99.90
2019-02-20T20:19:09.945Z,99.90
2019-02-20T20:21:37.698Z,99.90
2019-02-20T20:24:10.350Z,99.90
2019-02-20T20:26:42.553Z,99.90
2019-02-20T20:29:29.805Z,99.90
2019-02-20T20:31:57.082Z,99.90
2019-02-20T20:34:49.445Z,99.90
2019-02-20T20:37:39.065Z,99.90
2019-02-20T20:40:17.258Z,99.90
2019-02-20T20:42:51.724Z,99.90
2019-02-20T20:45:38.280Z,99.90
2019-02-20T20:48:18.561Z,99.90
2019-02-20T20:51:13.833Z,99.90
2019-02-20T20:53:49.169Z,99.90
2019-02-20T20:56:26.963Z,99.90
2019-02-20T20:58:42.303Z,99.90
2019-02-20T21:01:24.174Z,99.90
2019-02-20T21:03:30.840Z,99.90
2019-02-20T21:06:12.163Z,99.90
2019-02-20T21:08:42.849Z,99.90
2019-02-20T21:12:00.659Z,99.90
2019-02-20T21:14:40.101Z,99.90
2019-02-20T21:17:28.174Z,99.90
2019-02-20T21:19:51.590Z,99.90
2019-02-20T21:22:45.559Z,99.90
2019-02-20T21:25:50.830Z,99.90
2019-02-20T21:28:33.323Z,99.90
2019-02-20T21:31:22.873Z,99.90
2019-02-20T21:34:12.325Z,99.90
2019-02-20T21:36:48.718Z,99.90
2019-02-20T21:39:39.349Z,99.90
2019-02-20T21:42:07.555Z,99.90
2019-02-20T21:44:48.103Z,99.90
2019-02-20T21:47:36.977Z,99.90
2019-02-20T21:50:18.353Z,99.90
2019-02-20T21:52:46.786Z,99.90
2019-02-20T21:55:14.659Z,99.90
2019-02-20T21:58:28.810Z,99.90
2019-02-20T22:01:01.161Z,99.90
2019-02-20T22:03:42.486Z,99.90
2019-02-20T22:06:08.362Z,99.90
2019-02-20T22:08:51.847Z,99.90
2019-02-20T22:11:38.735Z,99.90
2019-02-20T22:14:22.761Z,99.90
2019-02-20T22:17:02.580Z,99.90
2019-02-20T22:19:53.178Z,99.90
2019-02-20T22:22:23.481Z,99.90
2019-02-20T22:24:54.259Z,99.90
2019-02-20T22:27:26.735Z,99.90
2019-02-20T22:30:11.963Z,99.90
2019-02-20T22:32:50.663Z,99.90
2019-02-20T22:35:25.028Z,99.90
2019-02-20T22:38:12.462Z,99.90
2019-02-20T22:40:57.230Z,99.90
2019-02-20T22:43:39.999Z,99.90
2019-02-20T22:46:12.109Z,99.90
2019-02-20T22:48:32.739Z,99.90
2019-02-20T22:51:17.621Z,99.90
2019-02-20T22:54:13.058Z,99.90
2019-02-20T22:56:57.997Z,99.90
2019-02-20T22:59:32.003Z,99.90
2019-02-20T23:02:02.466Z,99.90
2019-02-20T23:04:20.453Z,99.90
2019-02-20T23:06:49.350Z,99.90
2019-02-20T23:09:24.057Z,99.90
2019-02-20T23:11:51.949Z,99.90
2019-02-20T23:14:38.242Z,99.90
2019-02-20T23:16:45.044Z,99.90
2019-02-20T23:18:51.030Z,99.90
2019-02-20T23:20:56.809Z,99.90
2019-02-20T23:23:03.181Z,99.90
2019-02-20T23:25:08.821Z,99.90
2019-02-20T23:27:14.663Z,99.90
2019-02-20T23:29:21.701Z,99.90
2019-02-20T23:31:27.350Z,99.90
2019-02-20T23:33:32.770Z,99.90
2019-02-20T23:35:38.890Z,99.90
2019-02-20T23:37:44.933Z,99.90
2019-02-20T23:39:53.491Z,99.90
2019-02-20T23:42:01.348Z,99.90
2019-02-20T23:44:06.938Z,99.90
2019-02-20T23:46:12.545Z,99.90
2019-02-20T23:48:17.963Z,99.90
2019-02-20T23:50:23.415Z,99.90
2019-02-20T23:52:28.820Z,99.90
2019-02-20T23:54:34.203Z,99.90
2019-02-20T23:56:40.334Z,99.90
2019-02-20T23:58:45.785Z,99.90
